createdAt,value
2016-08-26T07:51:14.828Z,52.67
2016-08-26T07:51:49.134Z,53.06
2016-08-26T07:52:23.426Z,52.97
2016-08-26T07:52:57.710Z,52.67
2016-08-26T07:53:32.003Z,53.06
2016-08-26T07:54:06.682Z,52.77
2016-08-26T07:54:42.140Z,52.97
2016-08-26T07:55:17.673Z,53.16
2016-08-26T07:55:53.296Z,52.67
2016-08-26T07:56:28.765Z,52.77
2016-08-26T07:57:03.596Z,53.06
2016-08-26T07:57:38.381Z,52.77
2016-08-26T07:58:14.952Z,52.7
2016-08-26T07:58:49.214Z,53.06
2016-08-26T07:59:23.533Z,52.77
2016-08-26T07:59:58.717Z,52.7
2016-08-26T08:00:34.646Z,52.7
2016-08-26T08:01:10.082Z,53.09
2016-08-26T08:01:45.476Z,52.67
2016-08-26T08:02:20.813Z,52.8
2016-08-26T08:02:56.162Z,53.09
2016-08-26T08:03:31.742Z,52.7
2016-08-26T08:04:07.187Z,52.8
2016-08-26T08:04:42.766Z,52.8
2016-08-26T08:05:18.418Z,52.7
2016-08-26T08:05:53.935Z,52.7
2016-08-26T08:06:29.487Z,52.8
2016-08-26T08:07:05.624Z,52.7
2016-08-26T08:07:41.034Z,52.7
2016-08-26T08:08:16.674Z,53.09
2016-08-26T08:08:53.037Z,52.8
2016-08-26T08:09:28.339Z,52.73
2016-08-26T08:10:04.354Z,52.83
2016-08-26T08:10:39.943Z,52.92
2016-08-26T08:11:16.364Z,53.09
2016-08-26T08:11:52.123Z,52.92
2016-08-26T08:12:27.867Z,52.92
2016-08-26T08:13:03.607Z,52.92
2016-08-26T08:13:40.381Z,53.11
2016-08-26T08:14:18.600Z,53.21
2016-08-26T08:14:59.348Z,52.92
2016-08-26T08:15:37.057Z,52.92
2016-08-26T08:16:13.731Z,52.73
2016-08-26T08:16:50.150Z,52.83
2016-08-26T08:17:25.640Z,52.92
2016-08-26T08:18:02.678Z,52.63
2016-08-26T08:18:38.114Z,52.83
2016-08-26T08:19:13.699Z,52.83
2016-08-26T08:19:49.295Z,52.83
2016-08-26T08:20:24.872Z,52.73
2016-08-26T08:21:01.606Z,52.63
2016-08-26T08:21:37.306Z,52.92
2016-08-26T08:22:15.040Z,52.53
2016-08-26T08:22:51.620Z,53.21
2016-08-26T08:23:27.276Z,52.73
2016-08-26T08:24:02.989Z,52.66
2016-08-26T08:24:39.032Z,52.66
2016-08-26T08:25:15.109Z,52.85
2016-08-26T08:25:51.216Z,52.85
2016-08-26T08:26:26.932Z,52.66
2016-08-26T08:27:02.536Z,53.05
2016-08-26T08:27:38.213Z,52.56
2016-08-26T08:28:14.434Z,52.75
2016-08-26T08:28:50.279Z,52.66
2016-08-26T08:29:25.654Z,53.14
2016-08-26T08:30:01.890Z,52.75
2016-08-26T08:30:38.872Z,52.75
2016-08-26T08:31:14.714Z,52.66
2016-08-26T08:31:51.770Z,52.75
2016-08-26T08:32:28.743Z,52.87
2016-08-26T08:33:04.255Z,52.78
2016-08-26T08:33:43.113Z,52.75
2016-08-26T08:34:21.161Z,52.68
2016-08-26T08:34:57.472Z,52.87
2016-08-26T08:35:32.906Z,52.68
2016-08-26T08:36:08.449Z,52.87
2016-08-26T08:36:44.819Z,52.78
2016-08-26T08:37:20.415Z,52.58
2016-08-26T08:37:55.998Z,52.58
2016-08-26T08:38:33.638Z,52.58
2016-08-26T08:39:11.628Z,52.68
2016-08-26T08:39:48.420Z,52.78
2016-08-26T08:40:24.774Z,52.78
2016-08-26T08:41:00.327Z,52.78
2016-08-26T08:41:36.163Z,52.78
2016-08-26T08:42:11.595Z,52.58
2016-08-26T08:42:47.240Z,52.87
2016-08-26T08:43:23.468Z,52.58
2016-08-26T08:43:58.907Z,52.58
2016-08-26T08:44:35.145Z,52.39
2016-08-26T08:45:11.447Z,52.09
2016-08-26T08:45:47.139Z,52.22
2016-08-26T08:46:22.634Z,52.31
2016-08-26T08:46:58.328Z,52.29
2016-08-26T08:47:38.136Z,52.29
2016-08-26T08:48:15.643Z,52.29
2016-08-26T08:48:52.749Z,52.31
2016-08-26T08:49:31.125Z,52.22
2016-08-26T08:50:08.881Z,52.31
2016-08-26T08:50:45.124Z,53.09
2016-08-26T08:51:21.645Z,52.22
2016-08-26T08:51:58.876Z,52.31
2016-08-26T08:52:36.196Z,52.22
2016-08-26T08:53:12.426Z,52.12
2016-08-26T08:53:48.642Z,52.9
2016-08-26T08:54:29.133Z,52.22
2016-08-26T08:55:07.808Z,52.22
2016-08-26T08:55:44.602Z,52.12
2016-08-26T08:56:20.123Z,52.02
2016-08-26T08:56:56.679Z,52.9
2016-08-26T08:57:32.644Z,52.22
2016-08-26T08:58:10.138Z,52.41
2016-08-26T08:58:45.616Z,53
2016-08-26T08:59:21.986Z,52.12
2016-08-26T09:00:00.002Z,52.02
2016-08-26T09:00:35.631Z,53
2016-08-26T09:01:10.849Z,52.12
2016-08-26T09:01:47.289Z,52.22
2016-08-26T09:02:24.325Z,53
2016-08-26T09:03:01.072Z,52.12
2016-08-26T09:03:37.454Z,52.22
2016-08-26T09:04:13.072Z,52.8
2016-08-26T09:04:48.576Z,52.31
2016-08-26T09:05:23.972Z,52.8
2016-08-26T09:05:59.443Z,52.12
2016-08-26T09:06:34.598Z,52.64
2016-08-26T09:07:11.629Z,52.02
2016-08-26T09:07:49.336Z,51.92
2016-08-26T09:08:24.688Z,52.12
2016-08-26T09:09:01.583Z,51.95
2016-08-26T09:09:37.178Z,52.54
2016-08-26T09:10:12.654Z,52.64
2016-08-26T09:10:49.007Z,52.54
2016-08-26T09:11:25.589Z,52.44
2016-08-26T09:12:00.867Z,51.95
2016-08-26T09:13:57.458Z,51.95
2016-08-26T09:14:34.232Z,51.95
2016-08-26T09:15:12.653Z,51.95
2016-08-26T09:15:47.744Z,52.05
2016-08-26T09:16:23.768Z,52.15
2016-08-26T09:16:59.300Z,52.05
2016-08-26T09:17:35.522Z,52.15
2016-08-26T09:18:10.507Z,52.05
2016-08-26T09:18:48.159Z,51.95
2016-08-26T09:19:24.202Z,51.86
2016-08-26T09:19:59.245Z,52.05
2016-08-26T09:20:35.647Z,51.95
2016-08-26T09:21:11.996Z,52.05
2016-08-26T09:21:52.164Z,52.15
2016-08-26T09:22:28.656Z,52.44
2016-08-26T09:23:08.728Z,51.98
2016-08-26T09:23:49.663Z,52.05
2016-08-26T09:24:26.822Z,52.08
2016-08-26T09:25:02.205Z,51.98
2016-08-26T09:25:38.412Z,52.47
2016-08-26T09:26:13.825Z,51.98
2016-08-26T09:26:49.388Z,51.98
2016-08-26T09:27:24.688Z,52.08
2016-08-26T09:28:00.161Z,51.98
2016-08-26T09:28:35.712Z,52.08
2016-08-26T09:29:11.247Z,52.08
2016-08-26T09:29:46.431Z,51.98
2016-08-26T09:30:21.743Z,51.98
2016-08-26T09:30:57.080Z,51.98
2016-08-26T09:31:31.837Z,51.98
2016-08-26T09:32:06.136Z,52.08
2016-08-26T09:32:40.439Z,52.17
2016-08-26T09:33:14.742Z,51.98
2016-08-26T09:33:49.335Z,52.08
2016-08-26T09:34:23.617Z,51.98
2016-08-26T09:34:57.911Z,52.1
2016-08-26T09:35:32.203Z,51.98
2016-08-26T09:36:06.485Z,51.78
2016-08-26T09:36:40.776Z,52.2
2016-08-26T09:37:15.078Z,52.08
2016-08-26T09:37:49.490Z,51.98
2016-08-26T09:38:23.780Z,52.08
2016-08-26T09:38:58.076Z,52.29
2016-08-26T09:39:32.361Z,51.9
2016-08-26T09:40:06.720Z,52
2016-08-26T09:40:41.071Z,51.81
2016-08-26T09:41:15.360Z,51.81
2016-08-26T09:41:49.649Z,51.81
2016-08-26T09:42:23.932Z,51.71
2016-08-26T09:42:58.230Z,52.2
2016-08-26T09:43:32.513Z,52.2
2016-08-26T09:44:07.825Z,51.81
2016-08-26T09:44:42.204Z,51.81
2016-08-26T09:45:16.498Z,52
2016-08-26T09:45:50.797Z,51.81
2016-08-26T09:46:25.103Z,51.81
2016-08-26T09:46:59.425Z,51.81
2016-08-26T09:47:33.717Z,51.93
2016-08-26T09:48:08.005Z,51.83
2016-08-26T09:48:42.291Z,51.81
2016-08-26T09:49:16.588Z,52.22
2016-08-26T09:49:52.177Z,51.93
2016-08-26T09:50:26.495Z,52.03
2016-08-26T09:51:00.774Z,51.83
2016-08-26T09:51:36.447Z,51.93
2016-08-26T09:52:10.806Z,51.93
2016-08-26T09:52:47.066Z,51.54
2016-08-26T09:53:25.440Z,51.54
2016-08-26T09:54:03.998Z,51.73
2016-08-26T09:54:40.515Z,51.93
2016-08-26T09:55:17.576Z,52.12
2016-08-26T09:55:53.688Z,51.86
2016-08-26T09:56:34.694Z,51.83
2016-08-26T09:57:19.704Z,51.95
2016-08-26T09:58:02.711Z,51.95
2016-08-26T09:58:54.804Z,52.05
2016-08-26T09:59:38.807Z,51.76
2016-08-26T10:00:29.191Z,51.76
2016-08-26T10:01:23.717Z,51.76
2016-08-26T10:02:03.695Z,51.76
2016-08-26T10:02:46.702Z,52.05
2016-08-26T10:03:32.209Z,51.76
2016-08-26T10:04:12.969Z,51.46
2016-08-26T10:04:55.823Z,51.46
2016-08-26T10:05:34.187Z,52.15
2016-08-26T10:06:15.179Z,51.59
2016-08-26T10:06:55.705Z,51.59
2016-08-26T10:07:42.279Z,51.68
2016-08-26T10:08:32.205Z,51.29
2016-08-26T10:10:31.183Z,51.29
2016-08-26T10:11:05.788Z,51.88
2016-08-26T10:11:43.189Z,51.29
2016-08-26T10:12:21.920Z,51.29
2016-08-26T10:13:04.571Z,51.98
2016-08-26T10:13:43.377Z,51.22
2016-08-26T10:14:27.695Z,51.32
2016-08-26T10:15:12.699Z,51.32
2016-08-26T10:15:58.688Z,52
2016-08-26T10:16:43.193Z,51.9
2016-08-26T10:17:21.354Z,51.32
2016-08-26T10:18:02.710Z,51.32
2016-08-26T10:18:42.706Z,51.42
2016-08-26T10:19:28.213Z,51.51
2016-08-26T10:20:12.210Z,51.42
2016-08-26T10:21:01.229Z,51.42
2016-08-26T10:21:46.211Z,51.42
2016-08-26T10:22:28.204Z,51.42
2016-08-26T10:23:14.211Z,51.51
2016-08-26T10:24:00.213Z,51.42
2016-08-26T10:24:43.732Z,51.03
2016-08-26T10:25:34.900Z,51.54
2016-08-26T10:26:23.215Z,51.44
2016-08-26T10:29:03.028Z,51.25
2016-08-26T10:29:37.341Z,51.34
2016-08-26T10:30:11.632Z,51.25
2016-08-26T10:30:45.931Z,51.34
2016-08-26T10:31:20.248Z,51.15
2016-08-26T10:31:54.541Z,51.27
2016-08-26T10:32:28.822Z,51.37
2016-08-26T10:33:03.099Z,51.34
2016-08-26T10:33:37.399Z,50.95
2016-08-26T10:34:12.209Z,51.27
2016-08-26T10:34:46.522Z,51.46
2016-08-26T10:35:20.827Z,51.17
2016-08-26T10:35:55.132Z,51.17
2016-08-26T10:36:30.208Z,51.17
2016-08-26T10:37:06.472Z,51.07
2016-08-26T10:37:40.872Z,51.27
2016-08-26T10:38:15.155Z,51.17
2016-08-26T10:38:49.438Z,50.88
2016-08-26T10:39:24.303Z,51.07
2016-08-26T10:39:58.613Z,51.17
2016-08-26T10:40:32.955Z,50.78
2016-08-26T10:41:07.255Z,50.68
2016-08-26T10:41:41.578Z,50.88
2016-08-26T10:42:16.766Z,51
2016-08-26T10:42:51.156Z,51
2016-08-26T10:43:25.448Z,50.71
2016-08-26T10:43:59.728Z,50.71
2016-08-26T10:44:34.030Z,51.29
2016-08-26T10:45:08.419Z,50.42
2016-08-26T10:45:42.745Z,50.81
2016-08-26T10:46:17.036Z,50.51
2016-08-26T10:46:51.319Z,50.93
2016-08-26T10:47:25.610Z,50.81
2016-08-26T10:47:59.892Z,50.83
2016-08-26T10:48:34.184Z,50.83
2016-08-26T10:49:08.478Z,50.83
2016-08-26T10:49:42.792Z,50.44
2016-08-26T10:50:17.079Z,50.54
2016-08-26T10:50:51.367Z,50.54
2016-08-26T10:51:25.654Z,50.54
2016-08-26T10:52:01.220Z,50.83
2016-08-26T10:52:35.532Z,50.83
2016-08-26T10:53:10.723Z,50.54
2016-08-26T10:53:46.720Z,50.63
2016-08-26T10:54:21.692Z,50.63
2016-08-26T10:54:56.826Z,50.54
2016-08-26T10:55:31.102Z,50.56
2016-08-26T10:56:05.428Z,50.37
2016-08-26T10:56:39.735Z,50.37
2016-08-26T10:57:14.051Z,50.37
2016-08-26T10:57:49.101Z,50.27
2016-08-26T10:58:23.376Z,50.76
2016-08-26T10:58:57.687Z,50.27
2016-08-26T10:59:32.877Z,50.39
2016-08-26T11:00:08.570Z,50.37
2016-08-26T11:00:43.731Z,50.37
2016-08-26T11:01:19.563Z,50.27
2016-08-26T11:01:53.905Z,50.56
2016-08-26T11:02:28.193Z,50.07
2016-08-26T11:03:03.596Z,50.46
2016-08-26T11:03:37.908Z,50.09
2016-08-26T11:04:12.199Z,50.16
2016-08-26T11:04:46.488Z,50.19
2016-08-26T11:05:20.784Z,49.99
2016-08-26T11:05:55.082Z,50.27
2016-08-26T11:06:29.364Z,49.99
2016-08-26T11:07:03.663Z,50.07
2016-08-26T11:07:37.933Z,50.09
2016-08-26T11:08:12.231Z,50.09
2016-08-26T11:08:46.558Z,50.29
2016-08-26T11:09:20.852Z,50.09
2016-08-26T11:09:55.138Z,49.99
2016-08-26T11:10:29.434Z,49.99
2016-08-26T11:11:03.741Z,50.29
2016-08-26T11:11:38.041Z,49.7
2016-08-26T11:12:12.322Z,49.9
2016-08-26T11:12:46.619Z,49.7
2016-08-26T11:13:20.956Z,50.29
2016-08-26T11:13:55.245Z,49.99
2016-08-26T11:14:29.532Z,49.9
2016-08-26T11:15:03.823Z,50.19
2016-08-26T11:15:38.108Z,49.92
2016-08-26T11:16:12.398Z,50.12
2016-08-26T11:16:46.695Z,49.92
2016-08-26T11:17:20.998Z,50.02
2016-08-26T11:17:55.306Z,49.82
2016-08-26T11:18:29.602Z,49.92
2016-08-26T11:19:03.917Z,49.82
2016-08-26T11:19:38.224Z,49.92
2016-08-26T11:20:12.511Z,49.82
2016-08-26T11:20:46.814Z,49.75
2016-08-26T11:21:21.113Z,49.85
2016-08-26T11:21:55.406Z,49.65
2016-08-26T11:22:29.704Z,49.46
2016-08-26T11:23:04.848Z,49.75
2016-08-26T11:23:39.180Z,49.55
2016-08-26T11:24:13.483Z,49.55
2016-08-26T11:24:47.766Z,49.68
2016-08-26T11:25:22.052Z,49.58
2016-08-26T11:25:56.344Z,49.48
2016-08-26T11:26:31.369Z,49.58
2016-08-26T11:27:06.725Z,49.48
2016-08-26T11:27:41.934Z,49.28
2016-08-26T11:28:16.231Z,49.18
2016-08-26T11:28:50.509Z,49.4
2016-08-26T11:29:24.816Z,49.21
2016-08-26T11:29:59.118Z,49.21
2016-08-26T11:30:33.410Z,49.11
2016-08-26T11:31:07.701Z,49.4
2016-08-26T11:31:41.998Z,49.21
2016-08-26T11:32:16.268Z,49.01
2016-08-26T11:32:50.591Z,49.23
2016-08-26T11:33:24.870Z,49.04
2016-08-26T11:33:59.186Z,49.13
2016-08-26T11:34:33.710Z,49.13
2016-08-26T11:35:08.018Z,49.23
2016-08-26T11:35:42.305Z,49.23
2016-08-26T11:36:16.592Z,49.06
2016-08-26T11:36:50.889Z,48.96
2016-08-26T11:37:25.177Z,48.86
2016-08-26T11:37:59.474Z,48.76
2016-08-26T11:38:33.766Z,48.96
2016-08-26T11:39:08.068Z,48.59
2016-08-26T11:39:42.364Z,48.88
2016-08-26T11:40:16.654Z,48.66
2016-08-26T11:40:50.941Z,48.79
2016-08-26T11:41:25.223Z,48.69
2016-08-26T11:41:59.508Z,48.49
2016-08-26T11:42:33.814Z,48.49
2016-08-26T11:43:08.095Z,48.49
2016-08-26T11:43:42.367Z,48.29
2016-08-26T11:44:16.667Z,48.22
2016-08-26T11:44:50.987Z,48.41
2016-08-26T11:45:25.278Z,48.32
2016-08-26T11:45:59.577Z,47.92
2016-08-26T11:46:33.869Z,48.12
2016-08-26T11:47:08.447Z,48.22
2016-08-26T11:47:42.745Z,48.14
2016-08-26T11:48:17.036Z,48.04
2016-08-26T11:48:51.319Z,48.34
2016-08-26T11:49:25.609Z,47.85
2016-08-26T11:49:59.908Z,48.04
2016-08-26T11:50:34.212Z,47.75
2016-08-26T11:51:08.500Z,47.77
2016-08-26T11:51:42.802Z,47.87
2016-08-26T11:52:17.767Z,47.28
2016-08-26T11:52:52.224Z,47.57
2016-08-26T11:53:26.673Z,47.47
2016-08-26T11:54:00.965Z,47.47
2016-08-26T11:54:35.252Z,47.6
2016-08-26T11:55:09.825Z,47
2016-08-26T11:55:44.123Z,47.3
2016-08-26T11:56:18.415Z,47.3
2016-08-26T11:56:52.731Z,47.2
2016-08-26T11:57:27.035Z,47.4
2016-08-26T11:58:01.315Z,47.5
2016-08-26T11:58:35.597Z,47.22
2016-08-26T11:59:10.193Z,47.22
2016-08-26T11:59:44.487Z,47.22
2016-08-26T12:00:18.769Z,46.83
2016-08-26T12:00:53.073Z,46.93
2016-08-26T12:01:27.364Z,46.73
2016-08-26T12:02:01.660Z,46.73
2016-08-26T12:02:35.953Z,46.85
2016-08-26T12:03:10.599Z,46.45
2016-08-26T12:03:44.993Z,46.36
2016-08-26T12:04:20.715Z,46.45
2016-08-26T12:04:55.475Z,46.58
2016-08-26T12:05:29.810Z,46.48
2016-08-26T12:06:04.310Z,46.18
2016-08-26T12:06:38.683Z,46.28
2016-08-26T12:07:12.985Z,46.28
2016-08-26T12:07:47.359Z,46.67
2016-08-26T12:08:21.686Z,46.2
2016-08-26T12:08:55.974Z,45.98
2016-08-26T12:09:30.781Z,46.5
2016-08-26T12:10:05.104Z,45.61
2016-08-26T12:10:39.406Z,45.81
2016-08-26T12:11:13.691Z,46.5
2016-08-26T12:11:47.970Z,46.03
2016-08-26T12:12:22.265Z,46.03
2016-08-26T12:12:56.582Z,45.93
2016-08-26T12:13:30.867Z,45.43
2016-08-26T12:14:05.172Z,45.43
2016-08-26T12:14:39.880Z,45.43
2016-08-26T12:15:15.726Z,45.53
2016-08-26T12:15:50.393Z,45.26
2016-08-26T12:16:24.856Z,45.26
2016-08-26T12:16:59.749Z,45.36
2016-08-26T12:17:34.059Z,45.36
2016-08-26T12:18:09.245Z,45.18
2016-08-26T12:18:43.560Z,45.38
2016-08-26T12:19:17.857Z,45.38
2016-08-26T12:19:52.148Z,45.38
2016-08-26T12:20:26.445Z,44.39
2016-08-26T12:21:00.763Z,44.98
2016-08-26T12:21:35.810Z,44.68
2016-08-26T12:22:10.541Z,44.9
2016-08-26T12:22:44.833Z,44.71
2016-08-26T12:23:19.206Z,44.6
2016-08-26T12:23:53.505Z,44.41
2016-08-26T12:24:28.034Z,44.71
2016-08-26T12:25:03.042Z,44.53
2016-08-26T12:25:37.334Z,44.33
2016-08-26T12:26:11.619Z,44.15
2016-08-26T12:26:45.924Z,44.06
2016-08-26T12:27:20.225Z,44.06
2016-08-26T12:27:55.620Z,43.96
2016-08-26T12:28:29.937Z,43.66
2016-08-26T12:29:04.221Z,43.68
2016-08-26T12:29:38.859Z,43.58
2016-08-26T12:30:13.565Z,43.68
2016-08-26T12:30:47.937Z,43.4
2016-08-26T12:31:22.236Z,43.38
2016-08-26T12:31:56.651Z,43.38
2016-08-26T12:32:30.980Z,43.3
2016-08-26T12:33:05.807Z,43.4
2016-08-26T12:33:40.101Z,43.1
2016-08-26T12:34:14.416Z,43.2
2016-08-26T12:34:48.711Z,43.3
2016-08-26T12:35:23.065Z,43.13
2016-08-26T12:35:57.361Z,43.32
2016-08-26T12:36:31.651Z,42.83
2016-08-26T12:37:05.930Z,42.94
2016-08-26T12:37:40.203Z,42.55
2016-08-26T12:38:14.504Z,42.55
2016-08-26T12:38:48.807Z,42.55
2016-08-26T12:39:23.092Z,42.55
2016-08-26T12:39:57.395Z,42.27
2016-08-26T12:40:31.692Z,42.47
2016-08-26T12:41:06.001Z,42.47
2016-08-26T12:41:40.306Z,42.57
2016-08-26T12:42:14.615Z,42.27
2016-08-26T12:42:48.926Z,42.17
2016-08-26T12:43:23.249Z,42.29
2016-08-26T12:43:57.550Z,42.17
2016-08-26T12:44:31.848Z,42.07
2016-08-26T12:45:06.771Z,41.97
2016-08-26T12:45:41.906Z,41.69
2016-08-26T12:46:16.208Z,41.6
2016-08-26T12:46:50.491Z,41.6
2016-08-26T12:47:24.786Z,41.6
2016-08-26T12:47:59.087Z,41.69
2016-08-26T12:48:33.397Z,41.79
2016-08-26T12:49:07.702Z,42.09
2016-08-26T12:49:41.977Z,41.6
2016-08-26T12:50:16.265Z,41.42
2016-08-26T12:50:50.558Z,41.5
2016-08-26T12:51:24.859Z,41.52
2016-08-26T12:51:59.158Z,41.52
2016-08-26T12:52:33.447Z,41.61
2016-08-26T12:53:07.740Z,41.71
2016-08-26T12:53:42.044Z,41.42
2016-08-26T12:54:16.330Z,41.52
2016-08-26T12:54:50.614Z,41.52
2016-08-26T12:55:24.913Z,41.52
2016-08-26T12:55:59.197Z,41.31
2016-08-26T12:56:33.510Z,41.44
2016-08-26T12:57:07.818Z,41.22
2016-08-26T12:57:42.112Z,41.33
2016-08-26T12:58:16.386Z,41.44
2016-08-26T12:58:50.673Z,41.14
2016-08-26T12:59:24.961Z,41.03
2016-08-26T12:59:59.264Z,40.94
2016-08-26T13:00:33.578Z,41.14
2016-08-26T13:01:07.927Z,41.14
2016-08-26T13:01:42.209Z,41.16
2016-08-26T13:02:17.328Z,41.06
2016-08-26T13:02:51.697Z,40.84
2016-08-26T13:03:25.992Z,40.66
2016-08-26T13:04:00.287Z,40.86
2016-08-26T13:04:34.582Z,40.66
2016-08-26T13:05:08.956Z,40.86
2016-08-26T13:05:43.239Z,40.66
2016-08-26T13:06:17.589Z,40.66
2016-08-26T13:06:51.944Z,40.66
2016-08-26T13:07:26.243Z,40.36
2016-08-26T13:08:00.533Z,40.36
2016-08-26T13:08:34.838Z,40.46
2016-08-26T13:09:09.118Z,40.36
2016-08-26T13:09:43.418Z,40.48
2016-08-26T13:10:17.803Z,40.66
2016-08-26T13:10:52.121Z,40.56
2016-08-26T13:11:26.398Z,40.66
2016-08-26T13:12:00.684Z,40.58
2016-08-26T13:12:34.984Z,40.48
2016-08-26T13:13:09.276Z,40.48
2016-08-26T13:13:43.576Z,40.48
2016-08-26T13:14:17.869Z,40.48
2016-08-26T13:14:52.157Z,40.58
2016-08-26T13:15:26.460Z,40.38
2016-08-26T13:16:00.747Z,40.38
2016-08-26T13:16:35.052Z,40.48
2016-08-26T13:17:09.334Z,40.2
2016-08-26T13:17:43.623Z,40.2
2016-08-26T13:18:17.916Z,40.5
2016-08-26T13:18:52.220Z,40.1
2016-08-26T13:19:26.524Z,40.1
2016-08-26T13:20:00.807Z,40.2
2016-08-26T13:20:35.091Z,40.2
2016-08-26T13:21:09.376Z,40
2016-08-26T13:21:43.674Z,40.1
2016-08-26T13:22:17.985Z,40.01
2016-08-26T13:22:52.280Z,39.82
2016-08-26T13:23:26.578Z,39.9
2016-08-26T13:24:00.872Z,39.9
2016-08-26T13:24:35.152Z,39.6
2016-08-26T13:25:09.460Z,39.72
2016-08-26T13:25:43.746Z,39.82
2016-08-26T13:26:18.020Z,39.92
2016-08-26T13:26:52.302Z,39.82
2016-08-26T13:27:26.596Z,39.32
2016-08-26T13:28:00.908Z,39.72
2016-08-26T13:28:35.191Z,39.42
2016-08-26T13:29:09.515Z,39.42
2016-08-26T13:29:43.815Z,39.42
2016-08-26T13:30:18.108Z,39.32
2016-08-26T13:30:52.429Z,39.42
2016-08-26T13:31:26.727Z,39.62
2016-08-26T13:32:01.024Z,39.43
2016-08-26T13:32:35.314Z,39.32
2016-08-26T13:33:09.605Z,39.43
2016-08-26T13:33:43.874Z,39.34
2016-08-26T13:34:18.176Z,39.64
2016-08-26T13:34:52.462Z,39.34
2016-08-26T13:35:26.750Z,39.54
2016-08-26T13:36:01.051Z,39.64
2016-08-26T13:36:35.358Z,39.43
2016-08-26T13:37:09.663Z,39.34
2016-08-26T13:37:43.956Z,39.34
2016-08-26T13:38:18.247Z,39.43
2016-08-26T13:38:52.550Z,39.54
2016-08-26T13:39:26.824Z,39.34
2016-08-26T13:40:01.119Z,38.94
2016-08-26T13:40:35.411Z,39.15
2016-08-26T13:41:09.713Z,39.04
2016-08-26T13:41:44.015Z,39.34
2016-08-26T13:42:18.306Z,39.36
2016-08-26T13:42:52.595Z,39.14
2016-08-26T13:43:26.896Z,39.14
2016-08-26T13:44:01.175Z,39.14
2016-08-26T13:44:35.462Z,39.15
2016-08-26T13:45:09.755Z,39.14
2016-08-26T13:45:44.050Z,39.15
2016-08-26T13:46:18.353Z,39.04
2016-08-26T13:46:52.640Z,39.04
2016-08-26T13:47:26.932Z,39.24
2016-08-26T13:48:01.226Z,39.24
2016-08-26T13:48:35.513Z,39.34
2016-08-26T13:49:09.809Z,39.34
2016-08-26T13:49:44.116Z,39.14
2016-08-26T13:50:18.423Z,39.14
2016-08-26T13:50:52.727Z,39.24
2016-08-26T13:51:27.014Z,39.26
2016-08-26T13:52:01.331Z,39.34
2016-08-26T13:52:35.631Z,39.14
2016-08-26T13:53:09.914Z,39.46
2016-08-26T13:53:44.201Z,39.14
2016-08-26T13:54:18.488Z,39.24
2016-08-26T13:54:52.794Z,39.24
2016-08-26T13:55:27.100Z,39.34
2016-08-26T13:56:01.397Z,39.15
2016-08-26T13:56:35.717Z,39.14
2016-08-26T13:57:10.016Z,39.24
2016-08-26T13:57:44.331Z,39.24
2016-08-26T13:58:18.632Z,38.96
2016-08-26T13:58:52.936Z,39.04
2016-08-26T13:59:27.238Z,38.94
2016-08-26T14:00:01.524Z,39.14
2016-08-26T14:00:35.818Z,39.14
2016-08-26T14:01:10.112Z,39.14
2016-08-26T14:01:44.417Z,39.04
2016-08-26T14:02:18.722Z,39.06
2016-08-26T14:02:53.013Z,39.24
2016-08-26T14:03:27.315Z,39.04
2016-08-26T14:04:01.597Z,39.04
2016-08-26T14:04:35.896Z,39.04
2016-08-26T14:05:10.201Z,39.14
2016-08-26T14:05:44.511Z,39.14
2016-08-26T14:06:18.805Z,39.04
2016-08-26T14:06:53.098Z,39.04
2016-08-26T14:07:27.402Z,39.14
2016-08-26T14:08:01.706Z,39.04
2016-08-26T14:08:35.998Z,39.14
2016-08-26T14:09:10.288Z,39.04
2016-08-26T14:09:44.589Z,39.04
2016-08-26T14:10:18.888Z,38.94
2016-08-26T14:10:53.191Z,39.04
2016-08-26T14:11:27.499Z,38.94
2016-08-26T14:12:01.801Z,38.84
2016-08-26T14:12:36.082Z,38.94
2016-08-26T14:13:10.393Z,38.84
2016-08-26T14:13:44.678Z,39.14
2016-08-26T14:14:18.983Z,38.94
2016-08-26T14:14:53.280Z,38.84
2016-08-26T14:15:27.589Z,39.04
2016-08-26T14:16:01.900Z,39.04
2016-08-26T14:16:36.185Z,39.04
2016-08-26T14:17:10.480Z,39.24
2016-08-26T14:17:44.791Z,38.94
2016-08-26T14:18:19.090Z,38.84
2016-08-26T14:18:53.395Z,39.04
2016-08-26T14:19:27.685Z,39.24
2016-08-26T14:20:02.006Z,38.94
2016-08-26T14:20:36.316Z,38.94
2016-08-26T14:21:10.614Z,39.04
2016-08-26T14:21:44.909Z,38.94
2016-08-26T14:22:19.198Z,38.94
2016-08-26T14:22:53.490Z,39.04
2016-08-26T14:23:27.788Z,38.94
2016-08-26T14:24:02.092Z,39.02
2016-08-26T14:24:36.391Z,38.92
2016-08-26T14:25:10.706Z,39.04
2016-08-26T14:25:45.025Z,39.04
2016-08-26T14:26:19.315Z,39.02
2016-08-26T14:26:53.617Z,39.02
2016-08-26T14:27:27.896Z,39.02
2016-08-26T14:28:02.183Z,39.12
2016-08-26T14:28:36.481Z,39.02
2016-08-26T14:29:10.787Z,39.12
2016-08-26T14:29:45.094Z,39.12
2016-08-26T14:30:19.402Z,39.02
2016-08-26T14:30:53.689Z,39.02
2016-08-26T14:31:27.985Z,39.32
2016-08-26T14:32:02.288Z,39.12
2016-08-26T14:32:36.605Z,39.22
2016-08-26T14:33:10.922Z,39.22
2016-08-26T14:33:45.347Z,39.32
2016-08-26T14:34:19.647Z,39.3
2016-08-26T14:34:53.942Z,39.22
2016-08-26T14:35:28.230Z,39.2
2016-08-26T14:36:02.535Z,39.3
2016-08-26T14:36:36.842Z,39.2
2016-08-26T14:37:11.136Z,39.1
2016-08-26T14:37:45.448Z,39.1
2016-08-26T14:38:19.738Z,39
2016-08-26T14:38:54.027Z,39.3
2016-08-26T14:39:28.322Z,39.1
2016-08-26T14:40:02.628Z,39.3
2016-08-26T14:40:36.938Z,38.9
2016-08-26T14:41:11.235Z,39.2
2016-08-26T14:41:45.534Z,39.1
2016-08-26T14:42:19.815Z,39.3
2016-08-26T14:42:54.149Z,39.08
2016-08-26T14:43:28.448Z,39.38
2016-08-26T14:44:02.734Z,39.48
2016-08-26T14:44:37.037Z,39.48
2016-08-26T14:45:11.367Z,39.48
2016-08-26T14:45:45.664Z,39.18
2016-08-26T14:46:19.960Z,39.28
2016-08-26T14:46:54.278Z,39.18
2016-08-26T14:47:28.566Z,39.38
2016-08-26T14:48:02.849Z,39.58
2016-08-26T14:48:37.138Z,39.58
2016-08-26T14:49:11.435Z,39.18
2016-08-26T14:49:45.722Z,39.36
2016-08-26T14:50:20.025Z,39.26
2016-08-26T14:50:54.301Z,39.48
2016-08-26T14:51:28.591Z,39.36
2016-08-26T14:52:02.893Z,39.28
2016-08-26T14:52:37.198Z,39.36
2016-08-26T14:53:11.498Z,39.36
2016-08-26T14:53:45.798Z,39.46
2016-08-26T14:54:20.088Z,39.46
2016-08-26T14:54:54.387Z,39.56
2016-08-26T14:55:28.690Z,39.36
2016-08-26T14:56:02.996Z,39.56
2016-08-26T14:56:37.299Z,39.36
2016-08-26T14:57:11.592Z,39.26
2016-08-26T14:57:45.880Z,39.25
2016-08-26T14:58:20.183Z,39.14
2016-08-26T14:58:54.475Z,39.04
2016-08-26T14:59:28.772Z,39.84
2016-08-26T15:00:03.065Z,39.64
2016-08-26T15:00:37.367Z,39.74
2016-08-26T15:01:11.667Z,39.84
2016-08-26T15:01:45.964Z,39.34
2016-08-26T15:02:20.252Z,39.84
2016-08-26T15:02:54.540Z,39.74
2016-08-26T15:03:28.830Z,39.72
2016-08-26T15:04:03.125Z,39.83
2016-08-26T15:04:37.446Z,39.62
2016-08-26T15:05:11.746Z,39.83
2016-08-26T15:05:46.054Z,39.83
2016-08-26T15:06:20.358Z,39.92
2016-08-26T15:06:54.639Z,39.92
2016-08-26T15:07:28.934Z,39.92
2016-08-26T15:08:03.250Z,40.02
2016-08-26T15:08:37.557Z,40.12
2016-08-26T15:09:11.854Z,40.1
2016-08-26T15:09:46.144Z,40
2016-08-26T15:10:20.440Z,40
2016-08-26T15:10:54.737Z,40.4
2016-08-26T15:11:29.029Z,40
2016-08-26T15:12:03.334Z,40
2016-08-26T15:12:37.638Z,40
2016-08-26T15:13:11.932Z,40.38
2016-08-26T15:13:46.222Z,40.38
2016-08-26T15:14:20.528Z,40.28
2016-08-26T15:14:54.845Z,40.38
2016-08-26T15:15:29.143Z,40.28
2016-08-26T15:16:03.422Z,40.28
2016-08-26T15:16:37.716Z,40.48
2016-08-26T15:17:12.003Z,40.48
2016-08-26T15:17:46.285Z,40.18
2016-08-26T15:18:20.584Z,40.56
2016-08-26T15:18:54.877Z,40.26
2016-08-26T15:19:29.171Z,40.36
2016-08-26T15:20:03.485Z,40.26
2016-08-26T15:20:37.769Z,40.16
2016-08-26T15:21:12.070Z,40.66
2016-08-26T15:21:46.372Z,40.86
2016-08-26T15:22:20.655Z,40.44
2016-08-26T15:22:54.970Z,40.64
2016-08-26T15:23:29.261Z,40.44
2016-08-26T15:24:03.574Z,40.44
2016-08-26T15:24:37.881Z,41.04
2016-08-26T15:25:12.186Z,41.04
2016-08-26T15:25:46.483Z,41.02
2016-08-26T15:26:20.771Z,41.31
2016-08-26T15:26:55.054Z,41.12
2016-08-26T15:27:29.349Z,41.31
2016-08-26T15:28:03.638Z,41.31
2016-08-26T15:28:37.963Z,41.2
2016-08-26T15:29:12.264Z,41.39
2016-08-26T15:29:46.557Z,41.39
2016-08-26T15:30:20.840Z,41.3
2016-08-26T15:30:55.149Z,41.28
2016-08-26T15:31:29.448Z,41.38
2016-08-26T15:32:03.743Z,41.77